sensor_id;sensor_type;location;lat;lon;timestamp;P1;durP1;ratioP1;P2;durP2;ratioP2
29344;SDS011;16339;48.748;2.222;2023-05-07T00:00:06;5.13;;;2.10;;
29344;SDS011;16339;48.748;2.222;2023-05-07T00:02:36;6.78;;;2.28;;
29344;SDS011;16339;48.748;2.222;2023-05-07T00:05:06;5.65;;;1.88;;
29344;SDS011;16339;48.748;2.222;2023-05-07T00:07:37;6.30;;;2.55;;
29344;SDS011;16339;48.748;2.222;2023-05-07T00:10:06;8.40;;;2.33;;
29344;SDS011;16339;48.748;2.222;2023-05-07T00:12:40;3.38;;;2.10;;
29344;SDS011;16339;48.748;2.222;2023-05-07T00:15:09;6.88;;;2.00;;
29344;SDS011;16339;48.748;2.222;2023-05-07T00:17:38;6.63;;;2.50;;
29344;SDS011;16339;48.748;2.222;2023-05-07T00:20:07;9.95;;;2.20;;
29344;SDS011;16339;48.748;2.222;2023-05-07T00:22:36;6.55;;;2.15;;
29344;SDS011;16339;48.748;2.222;2023-05-07T00:25:09;4.40;;;2.00;;
29344;SDS011;16339;48.748;2.222;2023-05-07T00:27:38;9.45;;;2.33;;
29344;SDS011;16339;48.748;2.222;2023-05-07T00:30:07;4.90;;;2.08;;
29344;SDS011;16339;48.748;2.222;2023-05-07T00:32:36;5.65;;;1.35;;
29344;SDS011;16339;48.748;2.222;2023-05-07T00:35:06;1.83;;;1.00;;
29344;SDS011;16339;48.748;2.222;2023-05-07T00:37:36;4.10;;;1.15;;
29344;SDS011;16339;48.748;2.222;2023-05-07T00:40:05;2.60;;;0.95;;
29344;SDS011;16339;48.748;2.222;2023-05-07T00:42:38;2.28;;;1.38;;
29344;SDS011;16339;48.748;2.222;2023-05-07T00:47:35;2.45;;;0.80;;
29344;SDS011;16339;48.748;2.222;2023-05-07T00:50:05;5.13;;;1.10;;
29344;SDS011;16339;48.748;2.222;2023-05-07T00:52:35;1.08;;;0.82;;
29344;SDS011;16339;48.748;2.222;2023-05-07T00:55:07;7.20;;;0.80;;
29344;SDS011;16339;48.748;2.222;2023-05-07T00:57:40;1.35;;;1.10;;
29344;SDS011;16339;48.748;2.222;2023-05-07T01:00:09;2.63;;;1.00;;
29344;SDS011;16339;48.748;2.222;2023-05-07T01:02:39;3.30;;;1.00;;
29344;SDS011;16339;48.748;2.222;2023-05-07T01:05:09;6.13;;;1.20;;
29344;SDS011;16339;48.748;2.222;2023-05-07T01:10:10;3.85;;;1.15;;
29344;SDS011;16339;48.748;2.222;2023-05-07T01:12:42;4.03;;;1.02;;
29344;SDS011;16339;48.748;2.222;2023-05-07T01:15:17;2.53;;;1.20;;
29344;SDS011;16339;48.748;2.222;2023-05-07T01:17:46;2.95;;;1.23;;
29344;SDS011;16339;48.748;2.222;2023-05-07T01:20:15;5.55;;;1.85;;
29344;SDS011;16339;48.748;2.222;2023-05-07T01:22:48;4.95;;;1.67;;
29344;SDS011;16339;48.748;2.222;2023-05-07T01:25:18;4.43;;;1.80;;
29344;SDS011;16339;48.748;2.222;2023-05-07T01:27:48;4.40;;;1.50;;
29344;SDS011;16339;48.748;2.222;2023-05-07T01:30:16;3.50;;;1.27;;
29344;SDS011;16339;48.748;2.222;2023-05-07T01:32:49;8.70;;;1.35;;
29344;SDS011;16339;48.748;2.222;2023-05-07T01:35:22;1.83;;;1.05;;
29344;SDS011;16339;48.748;2.222;2023-05-07T01:38:00;3.00;;;1.20;;
29344;SDS011;16339;48.748;2.222;2023-05-07T01:40:31;3.60;;;1.33;;
29344;SDS011;16339;48.748;2.222;2023-05-07T01:43:00;5.40;;;1.65;;
29344;SDS011;16339;48.748;2.222;2023-05-07T01:45:30;2.97;;;1.40;;
29344;SDS011;16339;48.748;2.222;2023-05-07T01:47:59;6.80;;;2.00;;
29344;SDS011;16339;48.748;2.222;2023-05-07T01:50:28;4.28;;;2.28;;
29344;SDS011;16339;48.748;2.222;2023-05-07T01:53:01;4.13;;;1.67;;
29344;SDS011;16339;48.748;2.222;2023-05-07T01:55:30;3.40;;;1.42;;
29344;SDS011;16339;48.748;2.222;2023-05-07T01:57:59;3.60;;;1.40;;
29344;SDS011;16339;48.748;2.222;2023-05-07T02:00:28;5.63;;;1.50;;
29344;SDS011;16339;48.748;2.222;2023-05-07T02:02:56;22.35;;;3.65;;
29344;SDS011;16339;48.748;2.222;2023-05-07T02:05:25;13.30;;;2.60;;
29344;SDS011;16339;48.748;2.222;2023-05-07T02:07:54;26.08;;;4.00;;
29344;SDS011;16339;48.748;2.222;2023-05-07T02:10:25;16.80;;;2.72;;
29344;SDS011;16339;48.748;2.222;2023-05-07T02:12:56;3.45;;;1.33;;
29344;SDS011;16339;48.748;2.222;2023-05-07T02:15:27;8.18;;;1.70;;
29344;SDS011;16339;48.748;2.222;2023-05-07T02:18:01;3.60;;;1.55;;
29344;SDS011;16339;48.748;2.222;2023-05-07T02:23:00;2.13;;;1.55;;
29344;SDS011;16339;48.748;2.222;2023-05-07T02:25:31;5.10;;;1.27;;
29344;SDS011;16339;48.748;2.222;2023-05-07T02:28:00;6.38;;;1.85;;
29344;SDS011;16339;48.748;2.222;2023-05-07T02:30:29;4.70;;;1.73;;
29344;SDS011;16339;48.748;2.222;2023-05-07T02:32:58;7.88;;;2.00;;
29344;SDS011;16339;48.748;2.222;2023-05-07T02:35:26;7.25;;;1.90;;
29344;SDS011;16339;48.748;2.222;2023-05-07T02:37:55;6.20;;;2.75;;
29344;SDS011;16339;48.748;2.222;2023-05-07T02:40:24;9.77;;;2.00;;
29344;SDS011;16339;48.748;2.222;2023-05-07T02:42:55;6.60;;;2.70;;
29344;SDS011;16339;48.748;2.222;2023-05-07T02:45:27;6.05;;;2.70;;
29344;SDS011;16339;48.748;2.222;2023-05-07T02:47:56;7.53;;;4.03;;
29344;SDS011;16339;48.748;2.222;2023-05-07T02:50:24;5.95;;;3.00;;
29344;SDS011;16339;48.748;2.222;2023-05-07T02:52:53;12.25;;;2.83;;
29344;SDS011;16339;48.748;2.222;2023-05-07T02:55:22;6.65;;;2.35;;
29344;SDS011;16339;48.748;2.222;2023-05-07T02:57:50;6.68;;;2.50;;
29344;SDS011;16339;48.748;2.222;2023-05-07T03:00:22;6.10;;;2.40;;
29344;SDS011;16339;48.748;2.222;2023-05-07T03:02:52;6.50;;;1.80;;
29344;SDS011;16339;48.748;2.222;2023-05-07T03:05:21;4.95;;;1.83;;
29344;SDS011;16339;48.748;2.222;2023-05-07T03:07:54;7.28;;;2.15;;
29344;SDS011;16339;48.748;2.222;2023-05-07T03:10:23;3.88;;;1.90;;
29344;SDS011;16339;48.748;2.222;2023-05-07T03:12:51;11.05;;;2.42;;
29344;SDS011;16339;48.748;2.222;2023-05-07T03:15:23;8.90;;;3.30;;
29344;SDS011;16339;48.748;2.222;2023-05-07T03:20:20;4.88;;;2.30;;
29344;SDS011;16339;48.748;2.222;2023-05-07T03:22:49;5.78;;;1.65;;
29344;SDS011;16339;48.748;2.222;2023-05-07T03:25:18;10.40;;;4.50;;
29344;SDS011;16339;48.748;2.222;2023-05-07T03:27:47;6.90;;;3.95;;
29344;SDS011;16339;48.748;2.222;2023-05-07T03:30:16;10.60;;;3.78;;
29344;SDS011;16339;48.748;2.222;2023-05-07T03:32:47;7.95;;;2.50;;
29344;SDS011;16339;48.748;2.222;2023-05-07T03:37:45;3.70;;;2.15;;
29344;SDS011;16339;48.748;2.222;2023-05-07T03:40:14;5.03;;;1.77;;
29344;SDS011;16339;48.748;2.222;2023-05-07T03:42:42;3.35;;;2.20;;
29344;SDS011;16339;48.748;2.222;2023-05-07T03:45:11;9.27;;;2.00;;
29344;SDS011;16339;48.748;2.222;2023-05-07T03:47:40;6.28;;;1.70;;
29344;SDS011;16339;48.748;2.222;2023-05-07T03:50:12;6.00;;;2.30;;
29344;SDS011;16339;48.748;2.222;2023-05-07T03:55:09;5.80;;;1.80;;
29344;SDS011;16339;48.748;2.222;2023-05-07T03:57:38;6.85;;;1.92;;
29344;SDS011;16339;48.748;2.222;2023-05-07T04:00:07;3.17;;;1.80;;
29344;SDS011;16339;48.748;2.222;2023-05-07T04:02:36;3.65;;;1.70;;
29344;SDS011;16339;48.748;2.222;2023-05-07T04:05:05;3.72;;;2.10;;
29344;SDS011;16339;48.748;2.222;2023-05-07T04:07:37;5.97;;;2.13;;
29344;SDS011;16339;48.748;2.222;2023-05-07T04:10:06;3.97;;;2.13;;
29344;SDS011;16339;48.748;2.222;2023-05-07T04:12:35;4.85;;;1.70;;
29344;SDS011;16339;48.748;2.222;2023-05-07T04:15:04;7.32;;;2.20;;
29344;SDS011;16339;48.748;2.222;2023-05-07T04:17:34;4.95;;;2.20;;
29344;SDS011;16339;48.748;2.222;2023-05-07T04:20:03;7.13;;;2.80;;
29344;SDS011;16339;48.748;2.222;2023-05-07T04:22:33;6.93;;;2.70;;
29344;SDS011;16339;48.748;2.222;2023-05-07T04:25:05;6.63;;;1.98;;
29344;SDS011;16339;48.748;2.222;2023-05-07T04:27:35;6.90;;;2.00;;
29344;SDS011;16339;48.748;2.222;2023-05-07T04:30:06;4.20;;;2.25;;
29344;SDS011;16339;48.748;2.222;2023-05-07T04:32:35;4.90;;;2.58;;
29344;SDS011;16339;48.748;2.222;2023-05-07T04:35:06;6.88;;;2.33;;
29344;SDS011;16339;48.748;2.222;2023-05-07T04:37:35;7.60;;;2.47;;
29344;SDS011;16339;48.748;2.222;2023-05-07T04:40:07;4.53;;;2.33;;
29344;SDS011;16339;48.748;2.222;2023-05-07T04:42:36;5.43;;;1.88;;
29344;SDS011;16339;48.748;2.222;2023-05-07T04:45:05;2.20;;;1.80;;
29344;SDS011;16339;48.748;2.222;2023-05-07T04:47:35;5.78;;;1.73;;
29344;SDS011;16339;48.748;2.222;2023-05-07T04:50:04;4.85;;;2.03;;
29344;SDS011;16339;48.748;2.222;2023-05-07T04:52:34;8.38;;;2.30;;
29344;SDS011;16339;48.748;2.222;2023-05-07T04:55:03;10.32;;;2.35;;
29344;SDS011;16339;48.748;2.222;2023-05-07T04:57:37;13.80;;;2.50;;
29344;SDS011;16339;48.748;2.222;2023-05-07T05:00:07;10.05;;;1.95;;
29344;SDS011;16339;48.748;2.222;2023-05-07T05:02:39;5.03;;;1.85;;
29344;SDS011;16339;48.748;2.222;2023-05-07T05:05:08;4.95;;;1.73;;
29344;SDS011;16339;48.748;2.222;2023-05-07T05:07:37;8.23;;;2.03;;
29344;SDS011;16339;48.748;2.222;2023-05-07T05:10:06;3.65;;;1.67;;
29344;SDS011;16339;48.748;2.222;2023-05-07T05:12:37;8.25;;;1.52;;
29344;SDS011;16339;48.748;2.222;2023-05-07T05:15:07;2.63;;;1.60;;
29344;SDS011;16339;48.748;2.222;2023-05-07T05:17:36;4.40;;;1.70;;
29344;SDS011;16339;48.748;2.222;2023-05-07T05:20:06;3.15;;;1.60;;
29344;SDS011;16339;48.748;2.222;2023-05-07T05:22:35;3.38;;;1.63;;
29344;SDS011;16339;48.748;2.222;2023-05-07T05:25:04;4.75;;;1.40;;
29344;SDS011;16339;48.748;2.222;2023-05-07T05:27:34;5.80;;;1.58;;
29344;SDS011;16339;48.748;2.222;2023-05-07T05:30:06;2.75;;;1.63;;
29344;SDS011;16339;48.748;2.222;2023-05-07T05:32:35;3.70;;;1.60;;
29344;SDS011;16339;48.748;2.222;2023-05-07T05:35:04;4.38;;;1.92;;
29344;SDS011;16339;48.748;2.222;2023-05-07T05:37:33;3.17;;;1.55;;
29344;SDS011;16339;48.748;2.222;2023-05-07T05:40:02;5.72;;;1.77;;
29344;SDS011;16339;48.748;2.222;2023-05-07T05:42:31;4.90;;;1.80;;
29344;SDS011;16339;48.748;2.222;2023-05-07T05:45:03;3.55;;;1.73;;
29344;SDS011;16339;48.748;2.222;2023-05-07T05:47:32;4.38;;;1.80;;
29344;SDS011;16339;48.748;2.222;2023-05-07T05:50:01;3.38;;;1.58;;
29344;SDS011;16339;48.748;2.222;2023-05-07T05:52:31;3.38;;;1.80;;
29344;SDS011;16339;48.748;2.222;2023-05-07T05:54:59;3.70;;;1.80;;
29344;SDS011;16339;48.748;2.222;2023-05-07T05:57:28;3.88;;;1.50;;
29344;SDS011;16339;48.748;2.222;2023-05-07T05:59:57;2.78;;;1.60;;
29344;SDS011;16339;48.748;2.222;2023-05-07T06:02:28;6.25;;;1.42;;
29344;SDS011;16339;48.748;2.222;2023-05-07T06:04:57;2.65;;;1.73;;
29344;SDS011;16339;48.748;2.222;2023-05-07T06:07:25;5.40;;;1.90;;
29344;SDS011;16339;48.748;2.222;2023-05-07T06:09:54;1.80;;;1.38;;
29344;SDS011;16339;48.748;2.222;2023-05-07T06:12:23;2.97;;;1.52;;
29344;SDS011;16339;48.748;2.222;2023-05-07T06:14:51;4.85;;;1.48;;
29344;SDS011;16339;48.748;2.222;2023-05-07T06:17:20;3.33;;;1.20;;
29344;SDS011;16339;48.748;2.222;2023-05-07T06:19:51;7.82;;;1.40;;
29344;SDS011;16339;48.748;2.222;2023-05-07T06:22:20;2.25;;;1.30;;
29344;SDS011;16339;48.748;2.222;2023-05-07T06:24:49;5.38;;;1.55;;
29344;SDS011;16339;48.748;2.222;2023-05-07T06:27:18;7.43;;;1.40;;
29344;SDS011;16339;48.748;2.222;2023-05-07T06:29:48;5.70;;;1.90;;
29344;SDS011;16339;48.748;2.222;2023-05-07T06:32:17;3.45;;;2.03;;
29344;SDS011;16339;48.748;2.222;2023-05-07T06:34:46;3.63;;;1.95;;
29344;SDS011;16339;48.748;2.222;2023-05-07T06:37:18;5.63;;;2.67;;
29344;SDS011;16339;48.748;2.222;2023-05-07T06:39:47;8.38;;;2.47;;
29344;SDS011;16339;48.748;2.222;2023-05-07T06:42:15;2.13;;;1.65;;
29344;SDS011;16339;48.748;2.222;2023-05-07T06:44:44;2.85;;;1.38;;
29344;SDS011;16339;48.748;2.222;2023-05-07T06:47:13;3.08;;;1.90;;
29344;SDS011;16339;48.748;2.222;2023-05-07T06:49:41;5.65;;;1.77;;
29344;SDS011;16339;48.748;2.222;2023-05-07T06:52:10;5.10;;;1.90;;
29344;SDS011;16339;48.748;2.222;2023-05-07T06:54:43;2.97;;;1.50;;
29344;SDS011;16339;48.748;2.222;2023-05-07T06:57:12;4.15;;;1.90;;
29344;SDS011;16339;48.748;2.222;2023-05-07T06:59:40;2.08;;;1.77;;
29344;SDS011;16339;48.748;2.222;2023-05-07T07:02:09;3.50;;;1.90;;
29344;SDS011;16339;48.748;2.222;2023-05-07T07:04:38;2.95;;;1.98;;
29344;SDS011;16339;48.748;2.222;2023-05-07T07:07:07;4.70;;;2.33;;
29344;SDS011;16339;48.748;2.222;2023-05-07T07:09:35;3.80;;;1.85;;
29344;SDS011;16339;48.748;2.222;2023-05-07T07:12:07;7.00;;;2.17;;
29344;SDS011;16339;48.748;2.222;2023-05-07T07:17:04;4.95;;;2.03;;
29344;SDS011;16339;48.748;2.222;2023-05-07T07:19:33;6.35;;;1.98;;
29344;SDS011;16339;48.748;2.222;2023-05-07T07:22:02;4.38;;;1.98;;
29344;SDS011;16339;48.748;2.222;2023-05-07T07:24:31;6.38;;;1.83;;
29344;SDS011;16339;48.748;2.222;2023-05-07T07:27:00;5.70;;;2.05;;
29344;SDS011;16339;48.748;2.222;2023-05-07T07:29:31;2.72;;;1.63;;
29344;SDS011;16339;48.748;2.222;2023-05-07T07:32:00;2.35;;;1.70;;
29344;SDS011;16339;48.748;2.222;2023-05-07T07:34:29;5.78;;;1.95;;
29344;SDS011;16339;48.748;2.222;2023-05-07T07:36:58;5.57;;;2.25;;
29344;SDS011;16339;48.748;2.222;2023-05-07T07:39:30;3.47;;;1.90;;
29344;SDS011;16339;48.748;2.222;2023-05-07T07:41:59;2.25;;;1.75;;
29344;SDS011;16339;48.748;2.222;2023-05-07T07:44:28;4.45;;;2.10;;
29344;SDS011;16339;48.748;2.222;2023-05-07T07:47:00;4.13;;;1.77;;
29344;SDS011;16339;48.748;2.222;2023-05-07T07:49:28;3.75;;;2.03;;
29344;SDS011;16339;48.748;2.222;2023-05-07T07:52:00;4.15;;;2.00;;
29344;SDS011;16339;48.748;2.222;2023-05-07T07:54:29;4.68;;;2.20;;
29344;SDS011;16339;48.748;2.222;2023-05-07T07:56:57;4.57;;;1.65;;
29344;SDS011;16339;48.748;2.222;2023-05-07T07:59:26;1.90;;;1.17;;
29344;SDS011;16339;48.748;2.222;2023-05-07T08:01:58;5.43;;;1.40;;
29344;SDS011;16339;48.748;2.222;2023-05-07T08:06:56;4.07;;;2.00;;
29344;SDS011;16339;48.748;2.222;2023-05-07T08:09:25;6.72;;;2.00;;
29344;SDS011;16339;48.748;2.222;2023-05-07T08:11:53;2.58;;;2.10;;
29344;SDS011;16339;48.748;2.222;2023-05-07T08:14:22;4.63;;;1.80;;
29344;SDS011;16339;48.748;2.222;2023-05-07T08:16:51;3.70;;;2.40;;
29344;SDS011;16339;48.748;2.222;2023-05-07T08:19:22;2.95;;;2.00;;
29344;SDS011;16339;48.748;2.222;2023-05-07T08:24:20;3.17;;;2.25;;
29344;SDS011;16339;48.748;2.222;2023-05-07T08:26:49;2.20;;;1.58;;
29344;SDS011;16339;48.748;2.222;2023-05-07T08:29:17;2.50;;;1.85;;
29344;SDS011;16339;48.748;2.222;2023-05-07T08:31:46;3.00;;;1.80;;
29344;SDS011;16339;48.748;2.222;2023-05-07T08:34:15;3.65;;;2.10;;
29344;SDS011;16339;48.748;2.222;2023-05-07T08:36:46;2.75;;;1.58;;
29344;SDS011;16339;48.748;2.222;2023-05-07T08:41:44;2.15;;;1.50;;
29344;SDS011;16339;48.748;2.222;2023-05-07T08:44:13;2.28;;;1.30;;
29344;SDS011;16339;48.748;2.222;2023-05-07T08:46:43;2.45;;;1.50;;
29344;SDS011;16339;48.748;2.222;2023-05-07T08:49:15;3.83;;;1.52;;
29344;SDS011;16339;48.748;2.222;2023-05-07T08:51:47;2.83;;;1.73;;
29344;SDS011;16339;48.748;2.222;2023-05-07T08:54:16;2.92;;;1.52;;
29344;SDS011;16339;48.748;2.222;2023-05-07T08:56:46;2.53;;;1.90;;
29344;SDS011;16339;48.748;2.222;2023-05-07T08:59:15;3.40;;;1.58;;
29344;SDS011;16339;48.748;2.222;2023-05-07T09:01:43;5.55;;;2.00;;
29344;SDS011;16339;48.748;2.222;2023-05-07T09:04:12;2.78;;;1.75;;
29344;SDS011;16339;48.748;2.222;2023-05-07T09:06:41;3.38;;;1.90;;
29344;SDS011;16339;48.748;2.222;2023-05-07T09:09:12;2.30;;;1.90;;
29344;SDS011;16339;48.748;2.222;2023-05-07T09:11:42;4.78;;;1.77;;
29344;SDS011;16339;48.748;2.222;2023-05-07T09:14:11;5.50;;;2.20;;
29344;SDS011;16339;48.748;2.222;2023-05-07T09:16:40;2.85;;;2.00;;
29344;SDS011;16339;48.748;2.222;2023-05-07T09:19:09;3.10;;;2.10;;
29344;SDS011;16339;48.748;2.222;2023-05-07T09:21:38;8.63;;;2.38;;
29344;SDS011;16339;48.748;2.222;2023-05-07T09:24:06;4.93;;;2.28;;
29344;SDS011;16339;48.748;2.222;2023-05-07T09:26:38;7.00;;;2.10;;
29344;SDS011;16339;48.748;2.222;2023-05-07T09:29:07;6.55;;;2.42;;
29344;SDS011;16339;48.748;2.222;2023-05-07T09:31:39;3.22;;;1.98;;
29344;SDS011;16339;48.748;2.222;2023-05-07T09:34:08;3.53;;;2.13;;
29344;SDS011;16339;48.748;2.222;2023-05-07T09:36:36;2.53;;;1.80;;
29344;SDS011;16339;48.748;2.222;2023-05-07T09:39:05;3.55;;;1.90;;
29344;SDS011;16339;48.748;2.222;2023-05-07T09:41:43;3.08;;;1.90;;
29344;SDS011;16339;48.748;2.222;2023-05-07T09:44:12;2.15;;;1.95;;
29344;SDS011;16339;48.748;2.222;2023-05-07T09:46:42;7.20;;;2.00;;
29344;SDS011;16339;48.748;2.222;2023-05-07T09:49:13;1.67;;;1.50;;
29344;SDS011;16339;48.748;2.222;2023-05-07T09:51:49;2.70;;;1.90;;
29344;SDS011;16339;48.748;2.222;2023-05-07T09:54:18;6.07;;;1.92;;
29344;SDS011;16339;48.748;2.222;2023-05-07T09:56:50;2.95;;;1.90;;
29344;SDS011;16339;48.748;2.222;2023-05-07T09:59:20;4.00;;;1.80;;
29344;SDS011;16339;48.748;2.222;2023-05-07T10:01:50;5.63;;;2.78;;
29344;SDS011;16339;48.748;2.222;2023-05-07T10:04:21;4.05;;;2.20;;
29344;SDS011;16339;48.748;2.222;2023-05-07T10:06:53;5.05;;;2.40;;
29344;SDS011;16339;48.748;2.222;2023-05-07T10:09:23;6.20;;;2.92;;
29344;SDS011;16339;48.748;2.222;2023-05-07T10:11:56;4.10;;;2.00;;
29344;SDS011;16339;48.748;2.222;2023-05-07T10:14:25;3.30;;;1.85;;
29344;SDS011;16339;48.748;2.222;2023-05-07T10:16:55;5.15;;;1.83;;
29344;SDS011;16339;48.748;2.222;2023-05-07T10:19:25;9.27;;;2.90;;
29344;SDS011;16339;48.748;2.222;2023-05-07T10:21:55;2.95;;;1.60;;
29344;SDS011;16339;48.748;2.222;2023-05-07T10:24:31;3.25;;;1.40;;
29344;SDS011;16339;48.748;2.222;2023-05-07T10:27:05;3.05;;;1.70;;
29344;SDS011;16339;48.748;2.222;2023-05-07T10:29:39;2.97;;;1.60;;
29344;SDS011;16339;48.748;2.222;2023-05-07T10:32:23;2.03;;;1.50;;
29344;SDS011;16339;48.748;2.222;2023-05-07T10:35:04;1.83;;;1.58;;
29344;SDS011;16339;48.748;2.222;2023-05-07T10:37:39;4.57;;;1.70;;
29344;SDS011;16339;48.748;2.222;2023-05-07T10:40:12;3.80;;;1.60;;
29344;SDS011;16339;48.748;2.222;2023-05-07T10:45:32;3.90;;;1.90;;
29344;SDS011;16339;48.748;2.222;2023-05-07T10:48:10;4.30;;;1.65;;
29344;SDS011;16339;48.748;2.222;2023-05-07T10:50:44;2.75;;;1.80;;
29344;SDS011;16339;48.748;2.222;2023-05-07T10:53:23;5.00;;;1.60;;
29344;SDS011;16339;48.748;2.222;2023-05-07T11:01:59;6.22;;;2.30;;
29344;SDS011;16339;48.748;2.222;2023-05-07T11:04:33;15.63;;;7.38;;
29344;SDS011;16339;48.748;2.222;2023-05-07T11:10:04;12.85;;;4.72;;
29344;SDS011;16339;48.748;2.222;2023-05-07T11:12:49;8.15;;;2.70;;
29344;SDS011;16339;48.748;2.222;2023-05-07T11:18:15;17.27;;;4.90;;
29344;SDS011;16339;48.748;2.222;2023-05-07T11:20:51;54.55;;;8.38;;
29344;SDS011;16339;48.748;2.222;2023-05-07T11:26:24;19.00;;;4.63;;
29344;SDS011;16339;48.748;2.222;2023-05-07T11:28:57;9.23;;;4.47;;
29344;SDS011;16339;48.748;2.222;2023-05-07T11:31:26;15.60;;;6.88;;
29344;SDS011;16339;48.748;2.222;2023-05-07T11:34:03;11.77;;;5.35;;
29344;SDS011;16339;48.748;2.222;2023-05-07T11:36:33;9.23;;;5.20;;
29344;SDS011;16339;48.748;2.222;2023-05-07T11:39:04;12.65;;;4.20;;
29344;SDS011;16339;48.748;2.222;2023-05-07T11:41:35;7.00;;;4.28;;
29344;SDS011;16339;48.748;2.222;2023-05-07T11:46:34;7.63;;;4.10;;
29344;SDS011;16339;48.748;2.222;2023-05-07T11:49:05;5.13;;;3.20;;
29344;SDS011;16339;48.748;2.222;2023-05-07T11:51:39;4.93;;;2.72;;
29344;SDS011;16339;48.748;2.222;2023-05-07T11:54:18;7.35;;;2.80;;
29344;SDS011;16339;48.748;2.222;2023-05-07T11:56:47;4.25;;;2.85;;
29344;SDS011;16339;48.748;2.222;2023-05-07T11:59:25;4.97;;;2.85;;
29344;SDS011;16339;48.748;2.222;2023-05-07T12:02:06;5.93;;;3.28;;
29344;SDS011;16339;48.748;2.222;2023-05-07T12:04:37;4.03;;;3.05;;
29344;SDS011;16339;48.748;2.222;2023-05-07T12:07:10;3.42;;;2.50;;
29344;SDS011;16339;48.748;2.222;2023-05-07T12:09:40;5.60;;;2.90;;
29344;SDS011;16339;48.748;2.222;2023-05-07T12:12:09;5.32;;;3.60;;
29344;SDS011;16339;48.748;2.222;2023-05-07T12:14:40;9.13;;;4.03;;
29344;SDS011;16339;48.748;2.222;2023-05-07T12:17:10;8.07;;;3.65;;
29344;SDS011;16339;48.748;2.222;2023-05-07T12:22:12;9.48;;;4.45;;
29344;SDS011;16339;48.748;2.222;2023-05-07T12:24:57;12.10;;;5.00;;
29344;SDS011;16339;48.748;2.222;2023-05-07T12:27:27;5.93;;;4.50;;
29344;SDS011;16339;48.748;2.222;2023-05-07T12:30:05;8.63;;;4.60;;
29344;SDS011;16339;48.748;2.222;2023-05-07T12:32:37;11.80;;;4.45;;
29344;SDS011;16339;48.748;2.222;2023-05-07T12:35:10;5.30;;;3.97;;
29344;SDS011;16339;48.748;2.222;2023-05-07T12:37:41;11.50;;;4.88;;
29344;SDS011;16339;48.748;2.222;2023-05-07T12:40:10;10.23;;;4.93;;
29344;SDS011;16339;48.748;2.222;2023-05-07T12:42:40;12.25;;;5.32;;
29344;SDS011;16339;48.748;2.222;2023-05-07T12:45:14;9.48;;;5.97;;
29344;SDS011;16339;48.748;2.222;2023-05-07T12:47:44;8.45;;;5.68;;
29344;SDS011;16339;48.748;2.222;2023-05-07T12:50:17;9.13;;;5.50;;
29344;SDS011;16339;48.748;2.222;2023-05-07T12:52:48;11.95;;;6.10;;
29344;SDS011;16339;48.748;2.222;2023-05-07T12:55:25;15.52;;;6.55;;
29344;SDS011;16339;48.748;2.222;2023-05-07T12:57:55;30.20;;;12.88;;
29344;SDS011;16339;48.748;2.222;2023-05-07T13:00:34;38.17;;;17.20;;
29344;SDS011;16339;48.748;2.222;2023-05-07T13:03:04;14.88;;;7.18;;
29344;SDS011;16339;48.748;2.222;2023-05-07T13:08:11;15.40;;;6.78;;
29344;SDS011;16339;48.748;2.222;2023-05-07T13:10:40;26.55;;;11.98;;
29344;SDS011;16339;48.748;2.222;2023-05-07T13:13:08;18.50;;;11.23;;
29344;SDS011;16339;48.748;2.222;2023-05-07T13:15:37;35.25;;;10.85;;
29344;SDS011;16339;48.748;2.222;2023-05-07T13:18:06;13.98;;;6.85;;
29344;SDS011;16339;48.748;2.222;2023-05-07T13:20:36;14.10;;;7.22;;
29344;SDS011;16339;48.748;2.222;2023-05-07T13:23:05;13.00;;;7.03;;
29344;SDS011;16339;48.748;2.222;2023-05-07T13:25:37;17.85;;;7.28;;
29344;SDS011;16339;48.748;2.222;2023-05-07T13:30:34;16.95;;;7.90;;
29344;SDS011;16339;48.748;2.222;2023-05-07T13:33:05;9.95;;;6.03;;
29344;SDS011;16339;48.748;2.222;2023-05-07T13:35:34;9.93;;;6.05;;
29344;SDS011;16339;48.748;2.222;2023-05-07T13:38:03;7.88;;;5.30;;
29344;SDS011;16339;48.748;2.222;2023-05-07T13:40:32;8.52;;;5.05;;
29344;SDS011;16339;48.748;2.222;2023-05-07T13:43:05;9.25;;;5.03;;
29344;SDS011;16339;48.748;2.222;2023-05-07T13:45:34;11.45;;;4.90;;
29344;SDS011;16339;48.748;2.222;2023-05-07T13:48:03;5.80;;;4.18;;
29344;SDS011;16339;48.748;2.222;2023-05-07T13:50:32;8.88;;;4.28;;
29344;SDS011;16339;48.748;2.222;2023-05-07T13:53:00;4.13;;;3.38;;
29344;SDS011;16339;48.748;2.222;2023-05-07T13:55:30;6.70;;;4.00;;
29344;SDS011;16339;48.748;2.222;2023-05-07T13:57:59;9.90;;;4.50;;
29344;SDS011;16339;48.748;2.222;2023-05-07T14:00:31;5.47;;;4.20;;
29344;SDS011;16339;48.748;2.222;2023-05-07T14:02:59;9.52;;;4.32;;
29344;SDS011;16339;48.748;2.222;2023-05-07T14:05:28;6.90;;;4.72;;
29344;SDS011;16339;48.748;2.222;2023-05-07T14:07:57;7.78;;;4.32;;
29344;SDS011;16339;48.748;2.222;2023-05-07T14:10:27;6.65;;;4.50;;
29344;SDS011;16339;48.748;2.222;2023-05-07T14:12:56;7.25;;;4.80;;
29344;SDS011;16339;48.748;2.222;2023-05-07T14:15:28;7.47;;;4.88;;
29344;SDS011;16339;48.748;2.222;2023-05-07T14:17:57;8.70;;;4.63;;
29344;SDS011;16339;48.748;2.222;2023-05-07T14:20:26;10.95;;;4.30;;
29344;SDS011;16339;48.748;2.222;2023-05-07T14:22:56;7.22;;;4.97;;
29344;SDS011;16339;48.748;2.222;2023-05-07T14:25:24;7.03;;;4.15;;
29344;SDS011;16339;48.748;2.222;2023-05-07T14:27:53;6.28;;;4.22;;
29344;SDS011;16339;48.748;2.222;2023-05-07T14:30:22;5.20;;;4.18;;
29344;SDS011;16339;48.748;2.222;2023-05-07T14:32:54;7.88;;;4.15;;
29344;SDS011;16339;48.748;2.222;2023-05-07T14:35:34;4.35;;;3.85;;
29344;SDS011;16339;48.748;2.222;2023-05-07T14:38:15;20.67;;;3.67;;
29344;SDS011;16339;48.748;2.222;2023-05-07T14:40:53;3.67;;;3.05;;
29344;SDS011;16339;48.748;2.222;2023-05-07T14:43:24;5.65;;;2.72;;
29344;SDS011;16339;48.748;2.222;2023-05-07T14:45:53;4.00;;;2.42;;
29344;SDS011;16339;48.748;2.222;2023-05-07T14:48:26;4.53;;;2.65;;
29344;SDS011;16339;48.748;2.222;2023-05-07T14:50:55;3.15;;;2.60;;
29344;SDS011;16339;48.748;2.222;2023-05-07T14:53:24;9.20;;;2.95;;
29344;SDS011;16339;48.748;2.222;2023-05-07T14:55:52;3.15;;;2.60;;
29344;SDS011;16339;48.748;2.222;2023-05-07T14:58:21;5.13;;;2.80;;
29344;SDS011;16339;48.748;2.222;2023-05-07T15:00:50;3.42;;;2.63;;
29344;SDS011;16339;48.748;2.222;2023-05-07T15:03:19;5.57;;;4.07;;
29344;SDS011;16339;48.748;2.222;2023-05-07T15:05:50;4.43;;;2.78;;
29344;SDS011;16339;48.748;2.222;2023-05-07T15:08:19;7.95;;;3.72;;
29344;SDS011;16339;48.748;2.222;2023-05-07T15:10:48;5.50;;;2.72;;
29344;SDS011;16339;48.748;2.222;2023-05-07T15:13:17;3.45;;;2.58;;
29344;SDS011;16339;48.748;2.222;2023-05-07T15:15:46;2.80;;;2.58;;
29344;SDS011;16339;48.748;2.222;2023-05-07T15:18:15;4.93;;;2.40;;
29344;SDS011;16339;48.748;2.222;2023-05-07T15:20:46;6.10;;;2.38;;
29344;SDS011;16339;48.748;2.222;2023-05-07T15:23:17;4.00;;;2.38;;
29344;SDS011;16339;48.748;2.222;2023-05-07T15:25:46;3.72;;;2.30;;
29344;SDS011;16339;48.748;2.222;2023-05-07T15:28:15;2.42;;;2.20;;
29344;SDS011;16339;48.748;2.222;2023-05-07T15:30:44;4.93;;;2.00;;
29344;SDS011;16339;48.748;2.222;2023-05-07T15:33:12;4.18;;;1.95;;
29344;SDS011;16339;48.748;2.222;2023-05-07T15:35:41;3.78;;;1.50;;
29344;SDS011;16339;48.748;2.222;2023-05-07T15:38:10;2.08;;;1.73;;
29344;SDS011;16339;48.748;2.222;2023-05-07T15:40:46;2.10;;;1.90;;
29344;SDS011;16339;48.748;2.222;2023-05-07T15:43:15;2.92;;;2.35;;
29344;SDS011;16339;48.748;2.222;2023-05-07T15:45:46;4.53;;;2.53;;
29344;SDS011;16339;48.748;2.222;2023-05-07T15:48:15;3.58;;;2.50;;
29344;SDS011;16339;48.748;2.222;2023-05-07T15:50:46;4.90;;;2.50;;
29344;SDS011;16339;48.748;2.222;2023-05-07T15:53:14;2.55;;;2.00;;
29344;SDS011;16339;48.748;2.222;2023-05-07T15:55:46;2.33;;;2.13;;